sensor_id;sensor_type;location;lat;lon;timestamp;P1;durP1;ratioP1;P2;durP2;ratioP2
39654;SDS011;25336;59.944;11.010;2023-04-24T00:00:03;3.00;;;2.50;;
39654;SDS011;25336;59.944;11.010;2023-04-24T00:02:36;2.92;;;2.10;;
39654;SDS011;25336;59.944;11.010;2023-04-24T00:05:04;5.32;;;2.20;;
39654;SDS011;25336;59.944;11.010;2023-04-24T00:07:30;3.88;;;2.92;;
39654;SDS011;25336;59.944;11.010;2023-04-24T00:09:56;4.97;;;3.13;;
39654;SDS011;25336;59.944;11.010;2023-04-24T00:12:21;4.68;;;2.90;;
39654;SDS011;25336;59.944;11.010;2023-04-24T00:14:47;3.67;;;3.20;;
39654;SDS011;25336;59.944;11.010;2023-04-24T00:17:13;4.53;;;3.00;;
39654;SDS011;25336;59.944;11.010;2023-04-24T00:19:39;4.15;;;3.47;;
39654;SDS011;25336;59.944;11.010;2023-04-24T00:22:04;9.10;;;5.38;;
39654;SDS011;25336;59.944;11.010;2023-04-24T00:24:30;10.20;;;5.78;;
39654;SDS011;25336;59.944;11.010;2023-04-24T00:26:56;9.93;;;6.25;;
39654;SDS011;25336;59.944;11.010;2023-04-24T00:29:22;8.10;;;5.00;;
39654;SDS011;25336;59.944;11.010;2023-04-24T00:31:48;14.93;;;6.60;;
39654;SDS011;25336;59.944;11.010;2023-04-24T00:34:13;7.97;;;4.72;;
39654;SDS011;25336;59.944;11.010;2023-04-24T00:36:39;8.82;;;4.40;;
39654;SDS011;25336;59.944;11.010;2023-04-24T00:39:05;7.97;;;4.40;;
39654;SDS011;25336;59.944;11.010;2023-04-24T00:41:33;14.50;;;6.38;;
39654;SDS011;25336;59.944;11.010;2023-04-24T00:44:02;16.38;;;6.00;;
39654;SDS011;25336;59.944;11.010;2023-04-24T00:46:27;10.45;;;5.10;;
39654;SDS011;25336;59.944;11.010;2023-04-24T00:48:53;20.13;;;8.98;;
39654;SDS011;25336;59.944;11.010;2023-04-24T00:51:20;7.60;;;4.20;;
39654;SDS011;25336;59.944;11.010;2023-04-24T00:53:46;3.78;;;2.60;;
39654;SDS011;25336;59.944;11.010;2023-04-24T00:56:12;3.95;;;2.13;;
39654;SDS011;25336;59.944;11.010;2023-04-24T00:58:38;2.15;;;1.92;;
39654;SDS011;25336;59.944;11.010;2023-04-24T01:01:05;1.88;;;1.75;;
39654;SDS011;25336;59.944;11.010;2023-04-24T01:03:32;2.17;;;1.98;;
39654;SDS011;25336;59.944;11.010;2023-04-24T01:05:58;2.65;;;1.63;;
39654;SDS011;25336;59.944;11.010;2023-04-24T01:08:24;2.00;;;1.80;;
39654;SDS011;25336;59.944;11.010;2023-04-24T01:10:53;1.55;;;1.45;;
39654;SDS011;25336;59.944;11.010;2023-04-24T01:13:20;2.38;;;1.80;;
39654;SDS011;25336;59.944;11.010;2023-04-24T01:15:46;2.10;;;1.90;;
39654;SDS011;25336;59.944;11.010;2023-04-24T01:18:12;1.67;;;1.58;;
39654;SDS011;25336;59.944;11.010;2023-04-24T01:20:42;1.88;;;1.60;;
39654;SDS011;25336;59.944;11.010;2023-04-24T01:23:10;2.03;;;1.70;;
39654;SDS011;25336;59.944;11.010;2023-04-24T01:25:36;1.83;;;1.73;;
39654;SDS011;25336;59.944;11.010;2023-04-24T01:28:02;2.00;;;1.90;;
39654;SDS011;25336;59.944;11.010;2023-04-24T01:30:29;1.52;;;1.42;;
39654;SDS011;25336;59.944;11.010;2023-04-24T01:32:55;1.73;;;1.63;;
39654;SDS011;25336;59.944;11.010;2023-04-24T01:35:21;1.88;;;1.77;;
39654;SDS011;25336;59.944;11.010;2023-04-24T01:37:46;3.13;;;1.92;;
39654;SDS011;25336;59.944;11.010;2023-04-24T01:40:12;1.77;;;1.67;;
39654;SDS011;25336;59.944;11.010;2023-04-24T01:42:38;1.92;;;1.83;;
39654;SDS011;25336;59.944;11.010;2023-04-24T01:45:05;2.22;;;2.00;;
39654;SDS011;25336;59.944;11.010;2023-04-24T01:47:34;2.33;;;2.05;;
39654;SDS011;25336;59.944;11.010;2023-04-24T01:50:00;2.08;;;1.88;;
39654;SDS011;25336;59.944;11.010;2023-04-24T01:52:25;1.88;;;1.70;;
39654;SDS011;25336;59.944;11.010;2023-04-24T01:54:52;2.00;;;1.90;;
39654;SDS011;25336;59.944;11.010;2023-04-24T01:57:17;2.40;;;2.20;;
39654;SDS011;25336;59.944;11.010;2023-04-24T01:59:43;3.65;;;2.28;;
39654;SDS011;25336;59.944;11.010;2023-04-24T02:02:09;1.75;;;1.65;;
39654;SDS011;25336;59.944;11.010;2023-04-24T02:04:34;2.40;;;1.88;;
39654;SDS011;25336;59.944;11.010;2023-04-24T02:07:00;1.77;;;1.67;;
39654;SDS011;25336;59.944;11.010;2023-04-24T02:09:25;1.75;;;1.63;;
39654;SDS011;25336;59.944;11.010;2023-04-24T02:11:51;2.20;;;2.00;;
39654;SDS011;25336;59.944;11.010;2023-04-24T02:14:17;1.83;;;1.70;;
39654;SDS011;25336;59.944;11.010;2023-04-24T02:16:42;2.60;;;2.40;;
39654;SDS011;25336;59.944;11.010;2023-04-24T02:19:08;3.17;;;2.50;;
39654;SDS011;25336;59.944;11.010;2023-04-24T02:21:34;1.98;;;1.88;;
39654;SDS011;25336;59.944;11.010;2023-04-24T02:24:00;2.10;;;1.83;;
39654;SDS011;25336;59.944;11.010;2023-04-24T02:26:25;1.45;;;1.35;;
39654;SDS011;25336;59.944;11.010;2023-04-24T02:28:51;2.42;;;1.80;;
39654;SDS011;25336;59.944;11.010;2023-04-24T02:31:17;2.00;;;1.90;;
39654;SDS011;25336;59.944;11.010;2023-04-24T02:33:43;1.70;;;1.60;;
39654;SDS011;25336;59.944;11.010;2023-04-24T02:36:08;1.27;;;1.20;;
39654;SDS011;25336;59.944;11.010;2023-04-24T02:38:34;1.80;;;1.70;;
39654;SDS011;25336;59.944;11.010;2023-04-24T02:41:00;2.15;;;1.50;;
39654;SDS011;25336;59.944;11.010;2023-04-24T02:43:27;3.65;;;1.60;;
39654;SDS011;25336;59.944;11.010;2023-04-24T02:45:53;2.15;;;1.50;;
39654;SDS011;25336;59.944;11.010;2023-04-24T02:48:18;1.52;;;1.40;;
39654;SDS011;25336;59.944;11.010;2023-04-24T02:50:45;1.63;;;1.52;;
39654;SDS011;25336;59.944;11.010;2023-04-24T02:53:11;1.38;;;1.27;;
39654;SDS011;25336;59.944;11.010;2023-04-24T02:55:37;2.75;;;1.33;;
39654;SDS011;25336;59.944;11.010;2023-04-24T02:58:02;1.98;;;1.42;;
39654;SDS011;25336;59.944;11.010;2023-04-24T03:00:28;1.50;;;1.40;;
39654;SDS011;25336;59.944;11.010;2023-04-24T03:02:54;1.83;;;1.73;;
39654;SDS011;25336;59.944;11.010;2023-04-24T03:05:20;1.60;;;1.50;;
39654;SDS011;25336;59.944;11.010;2023-04-24T03:07:46;1.50;;;1.40;;
39654;SDS011;25336;59.944;11.010;2023-04-24T03:10:11;1.88;;;1.65;;
39654;SDS011;25336;59.944;11.010;2023-04-24T03:12:37;1.83;;;1.48;;
39654;SDS011;25336;59.944;11.010;2023-04-24T03:15:03;1.88;;;1.50;;
39654;SDS011;25336;59.944;11.010;2023-04-24T03:17:29;1.60;;;1.50;;
39654;SDS011;25336;59.944;11.010;2023-04-24T03:19:55;1.40;;;1.30;;
39654;SDS011;25336;59.944;11.010;2023-04-24T03:22:20;1.60;;;1.50;;
39654;SDS011;25336;59.944;11.010;2023-04-24T03:24:46;1.25;;;1.23;;
39654;SDS011;25336;59.944;11.010;2023-04-24T03:27:12;1.20;;;1.20;;
39654;SDS011;25336;59.944;11.010;2023-04-24T03:29:37;1.60;;;1.50;;
39654;SDS011;25336;59.944;11.010;2023-04-24T03:32:03;1.60;;;1.48;;
39654;SDS011;25336;59.944;11.010;2023-04-24T03:34:28;2.65;;;1.50;;
39654;SDS011;25336;59.944;11.010;2023-04-24T03:36:54;2.22;;;1.30;;
39654;SDS011;25336;59.944;11.010;2023-04-24T03:39:20;0.98;;;0.98;;
39654;SDS011;25336;59.944;11.010;2023-04-24T03:41:45;1.30;;;1.20;;
39654;SDS011;25336;59.944;11.010;2023-04-24T03:44:11;1.60;;;1.50;;
39654;SDS011;25336;59.944;11.010;2023-04-24T03:46:36;1.70;;;1.08;;
39654;SDS011;25336;59.944;11.010;2023-04-24T03:49:02;1.35;;;1.25;;
39654;SDS011;25336;59.944;11.010;2023-04-24T03:51:28;2.00;;;1.15;;
39654;SDS011;25336;59.944;11.010;2023-04-24T03:53:55;1.48;;;1.20;;
39654;SDS011;25336;59.944;11.010;2023-04-24T03:56:20;1.45;;;1.35;;
39654;SDS011;25336;59.944;11.010;2023-04-24T03:58:46;1.42;;;1.33;;
39654;SDS011;25336;59.944;11.010;2023-04-24T04:01:12;1.27;;;1.23;;
39654;SDS011;25336;59.944;11.010;2023-04-24T04:03:38;1.60;;;1.50;;
39654;SDS011;25336;59.944;11.010;2023-04-24T04:06:04;1.50;;;1.40;;
39654;SDS011;25336;59.944;11.010;2023-04-24T04:08:29;1.50;;;1.40;;
39654;SDS011;25336;59.944;11.010;2023-04-24T04:10:55;1.30;;;1.20;;
39654;SDS011;25336;59.944;11.010;2023-04-24T04:13:21;1.52;;;1.42;;
39654;SDS011;25336;59.944;11.010;2023-04-24T04:15:46;1.20;;;1.10;;
39654;SDS011;25336;59.944;11.010;2023-04-24T04:18:12;1.33;;;1.23;;
39654;SDS011;25336;59.944;11.010;2023-04-24T04:20:38;1.38;;;1.20;;
39654;SDS011;25336;59.944;11.010;2023-04-24T04:23:03;1.30;;;1.20;;
39654;SDS011;25336;59.944;11.010;2023-04-24T04:25:29;1.40;;;1.30;;
39654;SDS011;25336;59.944;11.010;2023-04-24T04:27:54;1.60;;;1.50;;
39654;SDS011;25336;59.944;11.010;2023-04-24T04:30:20;2.22;;;1.48;;
39654;SDS011;25336;59.944;11.010;2023-04-24T04:32:46;1.85;;;1.63;;
39654;SDS011;25336;59.944;11.010;2023-04-24T04:35:12;5.07;;;3.35;;
39654;SDS011;25336;59.944;11.010;2023-04-24T04:37:38;4.45;;;3.03;;
39654;SDS011;25336;59.944;11.010;2023-04-24T04:40:05;4.22;;;3.00;;
39654;SDS011;25336;59.944;11.010;2023-04-24T04:42:31;2.20;;;1.98;;
39654;SDS011;25336;59.944;11.010;2023-04-24T04:44:59;2.45;;;1.33;;
39654;SDS011;25336;59.944;11.010;2023-04-24T04:47:25;2.42;;;1.08;;
39654;SDS011;25336;59.944;11.010;2023-04-24T04:49:55;1.92;;;1.30;;
39654;SDS011;25336;59.944;11.010;2023-04-24T04:52:21;1.30;;;1.20;;
39654;SDS011;25336;59.944;11.010;2023-04-24T04:54:51;1.52;;;1.30;;
39654;SDS011;25336;59.944;11.010;2023-04-24T04:57:16;1.13;;;1.02;;
39654;SDS011;25336;59.944;11.010;2023-04-24T04:59:42;1.30;;;1.20;;
39654;SDS011;25336;59.944;11.010;2023-04-24T05:02:08;1.38;;;1.27;;
39654;SDS011;25336;59.944;11.010;2023-04-24T05:04:34;1.33;;;0.90;;
39654;SDS011;25336;59.944;11.010;2023-04-24T05:06:59;1.30;;;1.10;;
39654;SDS011;25336;59.944;11.010;2023-04-24T05:09:25;1.42;;;1.25;;
39654;SDS011;25336;59.944;11.010;2023-04-24T05:11:52;1.10;;;1.00;;
39654;SDS011;25336;59.944;11.010;2023-04-24T05:14:18;1.27;;;1.20;;
39654;SDS011;25336;59.944;11.010;2023-04-24T05:16:45;1.15;;;1.05;;
39654;SDS011;25336;59.944;11.010;2023-04-24T05:19:10;0.98;;;0.98;;
39654;SDS011;25336;59.944;11.010;2023-04-24T05:21:37;1.20;;;1.10;;
39654;SDS011;25336;59.944;11.010;2023-04-24T05:24:04;1.00;;;1.00;;
39654;SDS011;25336;59.944;11.010;2023-04-24T05:26:30;2.72;;;1.83;;
39654;SDS011;25336;59.944;11.010;2023-04-24T05:28:56;1.10;;;1.00;;
39654;SDS011;25336;59.944;11.010;2023-04-24T05:31:21;1.20;;;0.90;;
39654;SDS011;25336;59.944;11.010;2023-04-24T05:33:47;0.85;;;0.85;;
39654;SDS011;25336;59.944;11.010;2023-04-24T05:36:13;1.00;;;1.00;;
39654;SDS011;25336;59.944;11.010;2023-04-24T05:38:39;1.10;;;1.00;;
39654;SDS011;25336;59.944;11.010;2023-04-24T05:41:05;0.90;;;0.90;;
39654;SDS011;25336;59.944;11.010;2023-04-24T05:43:30;1.50;;;1.17;;
39654;SDS011;25336;59.944;11.010;2023-04-24T05:45:57;2.95;;;1.95;;
39654;SDS011;25336;59.944;11.010;2023-04-24T05:48:23;3.97;;;2.08;;
39654;SDS011;25336;59.944;11.010;2023-04-24T05:50:48;7.47;;;2.50;;
39654;SDS011;25336;59.944;11.010;2023-04-24T05:53:14;3.38;;;2.03;;
39654;SDS011;25336;59.944;11.010;2023-04-24T05:55:40;5.10;;;2.63;;
39654;SDS011;25336;59.944;11.010;2023-04-24T05:58:06;6.63;;;2.90;;
39654;SDS011;25336;59.944;11.010;2023-04-24T06:00:31;6.05;;;3.53;;
39654;SDS011;25336;59.944;11.010;2023-04-24T06:02:58;1.92;;;1.58;;
39654;SDS011;25336;59.944;11.010;2023-04-24T06:05:25;1.15;;;1.15;;
39654;SDS011;25336;59.944;11.010;2023-04-24T06:07:51;1.20;;;1.05;;
39654;SDS011;25336;59.944;11.010;2023-04-24T06:10:16;1.20;;;1.08;;
39654;SDS011;25336;59.944;11.010;2023-04-24T06:12:42;1.52;;;1.20;;
39654;SDS011;25336;59.944;11.010;2023-04-24T06:15:08;1.08;;;0.90;;
39654;SDS011;25336;59.944;11.010;2023-04-24T06:17:34;0.95;;;0.90;;
39654;SDS011;25336;59.944;11.010;2023-04-24T06:20:00;1.45;;;1.10;;
39654;SDS011;25336;59.944;11.010;2023-04-24T06:22:25;1.23;;;1.15;;
39654;SDS011;25336;59.944;11.010;2023-04-24T06:24:51;0.85;;;0.80;;
39654;SDS011;25336;59.944;11.010;2023-04-24T06:27:17;1.42;;;1.33;;
39654;SDS011;25336;59.944;11.010;2023-04-24T06:29:42;0.77;;;0.77;;
39654;SDS011;25336;59.944;11.010;2023-04-24T06:32:08;0.80;;;0.80;;
39654;SDS011;25336;59.944;11.010;2023-04-24T06:34:34;0.80;;;0.80;;
39654;SDS011;25336;59.944;11.010;2023-04-24T06:37:00;1.13;;;1.02;;
39654;SDS011;25336;59.944;11.010;2023-04-24T06:39:26;1.13;;;0.90;;
39654;SDS011;25336;59.944;11.010;2023-04-24T06:41:51;1.20;;;1.13;;
39654;SDS011;25336;59.944;11.010;2023-04-24T06:44:17;1.30;;;1.17;;
39654;SDS011;25336;59.944;11.010;2023-04-24T06:46:42;2.35;;;1.10;;
39654;SDS011;25336;59.944;11.010;2023-04-24T06:49:08;1.27;;;1.17;;
39654;SDS011;25336;59.944;11.010;2023-04-24T06:51:34;1.05;;;0.93;;
39654;SDS011;25336;59.944;11.010;2023-04-24T06:54:00;1.95;;;0.95;;
39654;SDS011;25336;59.944;11.010;2023-04-24T06:56:26;1.05;;;0.95;;
39654;SDS011;25336;59.944;11.010;2023-04-24T06:58:54;0.82;;;0.82;;
39654;SDS011;25336;59.944;11.010;2023-04-24T07:01:19;0.90;;;0.90;;
39654;SDS011;25336;59.944;11.010;2023-04-24T07:03:45;0.95;;;0.95;;
39654;SDS011;25336;59.944;11.010;2023-04-24T07:06:10;1.02;;;0.90;;
39654;SDS011;25336;59.944;11.010;2023-04-24T07:08:37;0.75;;;0.75;;
39654;SDS011;25336;59.944;11.010;2023-04-24T07:11:03;1.25;;;1.10;;
39654;SDS011;25336;59.944;11.010;2023-04-24T07:13:29;0.88;;;0.88;;
39654;SDS011;25336;59.944;11.010;2023-04-24T07:15:55;0.90;;;0.90;;
39654;SDS011;25336;59.944;11.010;2023-04-24T07:18:21;0.85;;;0.80;;
39654;SDS011;25336;59.944;11.010;2023-04-24T07:20:47;1.02;;;1.00;;
39654;SDS011;25336;59.944;11.010;2023-04-24T07:23:15;1.13;;;1.02;;
39654;SDS011;25336;59.944;11.010;2023-04-24T07:25:40;2.38;;;1.10;;
39654;SDS011;25336;59.944;11.010;2023-04-24T07:28:06;0.80;;;0.80;;
39654;SDS011;25336;59.944;11.010;2023-04-24T07:30:32;1.85;;;1.13;;
39654;SDS011;25336;59.944;11.010;2023-04-24T07:32:58;0.80;;;0.80;;
39654;SDS011;25336;59.944;11.010;2023-04-24T07:35:24;1.08;;;0.95;;
39654;SDS011;25336;59.944;11.010;2023-04-24T07:37:53;0.90;;;0.90;;
39654;SDS011;25336;59.944;11.010;2023-04-24T07:40:19;1.10;;;0.90;;
39654;SDS011;25336;59.944;11.010;2023-04-24T07:42:45;1.17;;;1.17;;
39654;SDS011;25336;59.944;11.010;2023-04-24T07:45:13;3.63;;;1.52;;
39654;SDS011;25336;59.944;11.010;2023-04-24T07:47:39;1.40;;;1.23;;
39654;SDS011;25336;59.944;11.010;2023-04-24T07:50:08;1.00;;;1.00;;
39654;SDS011;25336;59.944;11.010;2023-04-24T07:52:35;0.80;;;0.80;;
39654;SDS011;25336;59.944;11.010;2023-04-24T07:55:01;0.77;;;0.77;;
39654;SDS011;25336;59.944;11.010;2023-04-24T07:57:27;0.68;;;0.68;;
39654;SDS011;25336;59.944;11.010;2023-04-24T07:59:53;1.05;;;0.80;;
39654;SDS011;25336;59.944;11.010;2023-04-24T08:02:19;0.80;;;0.80;;
39654;SDS011;25336;59.944;11.010;2023-04-24T08:04:46;2.15;;;1.95;;
39654;SDS011;25336;59.944;11.010;2023-04-24T08:07:12;2.05;;;1.35;;
39654;SDS011;25336;59.944;11.010;2023-04-24T08:09:38;1.17;;;1.08;;
39654;SDS011;25336;59.944;11.010;2023-04-24T08:12:03;1.30;;;1.20;;
39654;SDS011;25336;59.944;11.010;2023-04-24T08:14:29;0.90;;;0.90;;
39654;SDS011;25336;59.944;11.010;2023-04-24T08:16:55;1.27;;;1.27;;
39654;SDS011;25336;59.944;11.010;2023-04-24T08:19:25;0.90;;;0.90;;
39654;SDS011;25336;59.944;11.010;2023-04-24T08:21:50;1.70;;;1.60;;
39654;SDS011;25336;59.944;11.010;2023-04-24T08:24:16;1.42;;;1.30;;
39654;SDS011;25336;59.944;11.010;2023-04-24T08:26:42;1.63;;;1.20;;
39654;SDS011;25336;59.944;11.010;2023-04-24T08:29:07;1.15;;;1.13;;
39654;SDS011;25336;59.944;11.010;2023-04-24T08:31:34;4.72;;;2.50;;
39654;SDS011;25336;59.944;11.010;2023-04-24T08:34:00;2.30;;;1.55;;
39654;SDS011;25336;59.944;11.010;2023-04-24T08:36:26;5.22;;;2.88;;
39654;SDS011;25336;59.944;11.010;2023-04-24T08:38:52;1.63;;;1.40;;
39654;SDS011;25336;59.944;11.010;2023-04-24T08:41:18;1.00;;;1.00;;
39654;SDS011;25336;59.944;11.010;2023-04-24T08:43:45;1.20;;;1.10;;
39654;SDS011;25336;59.944;11.010;2023-04-24T08:46:11;1.40;;;1.30;;
39654;SDS011;25336;59.944;11.010;2023-04-24T08:48:38;2.33;;;1.88;;
39654;SDS011;25336;59.944;11.010;2023-04-24T08:51:06;3.13;;;2.83;;
39654;SDS011;25336;59.944;11.010;2023-04-24T08:53:33;1.20;;;1.10;;
39654;SDS011;25336;59.944;11.010;2023-04-24T08:56:00;1.52;;;1.42;;
39654;SDS011;25336;59.944;11.010;2023-04-24T08:58:27;2.00;;;1.52;;
39654;SDS011;25336;59.944;11.010;2023-04-24T09:00:56;1.08;;;1.00;;
39654;SDS011;25336;59.944;11.010;2023-04-24T09:03:23;2.97;;;2.60;;
39654;SDS011;25336;59.944;11.010;2023-04-24T09:05:49;1.40;;;1.30;;
39654;SDS011;25336;59.944;11.010;2023-04-24T09:08:19;2.50;;;2.30;;
39654;SDS011;25336;59.944;11.010;2023-04-24T09:10:45;1.70;;;1.60;;
39654;SDS011;25336;59.944;11.010;2023-04-24T09:13:10;1.45;;;1.35;;
39654;SDS011;25336;59.944;11.010;2023-04-24T09:15:37;1.75;;;1.65;;
39654;SDS011;25336;59.944;11.010;2023-04-24T09:18:04;2.00;;;1.80;;
39654;SDS011;25336;59.944;11.010;2023-04-24T09:20:29;1.75;;;1.40;;
39654;SDS011;25336;59.944;11.010;2023-04-24T09:22:59;1.70;;;1.60;;
39654;SDS011;25336;59.944;11.010;2023-04-24T09:25:30;1.48;;;1.38;;
39654;SDS011;25336;59.944;11.010;2023-04-24T09:27:59;1.98;;;1.80;;
39654;SDS011;25336;59.944;11.010;2023-04-24T09:30:28;2.20;;;1.50;;
39654;SDS011;25336;59.944;11.010;2023-04-24T09:33:10;3.67;;;2.60;;
39654;SDS011;25336;59.944;11.010;2023-04-24T09:35:41;6.15;;;3.25;;
39654;SDS011;25336;59.944;11.010;2023-04-24T09:38:10;3.90;;;2.75;;
39654;SDS011;25336;59.944;11.010;2023-04-24T09:40:36;4.30;;;2.78;;
39654;SDS011;25336;59.944;11.010;2023-04-24T09:43:02;4.00;;;2.83;;
39654;SDS011;25336;59.944;11.010;2023-04-24T09:45:40;3.53;;;2.33;;
39654;SDS011;25336;59.944;11.010;2023-04-24T09:48:08;6.20;;;3.90;;
39654;SDS011;25336;59.944;11.010;2023-04-24T09:50:35;3.80;;;2.95;;
39654;SDS011;25336;59.944;11.010;2023-04-24T09:53:04;7.05;;;4.40;;
39654;SDS011;25336;59.944;11.010;2023-04-24T09:55:33;8.88;;;4.80;;
39654;SDS011;25336;59.944;11.010;2023-04-24T09:58:04;7.30;;;3.28;;
39654;SDS011;25336;59.944;11.010;2023-04-24T10:00:31;5.13;;;2.00;;
39654;SDS011;25336;59.944;11.010;2023-04-24T10:02:58;2.97;;;2.28;;
39654;SDS011;25336;59.944;11.010;2023-04-24T10:05:30;6.57;;;2.90;;
39654;SDS011;25336;59.944;11.010;2023-04-24T10:08:00;5.32;;;2.50;;
39654;SDS011;25336;59.944;11.010;2023-04-24T10:10:28;3.50;;;2.50;;
39654;SDS011;25336;59.944;11.010;2023-04-24T10:12:55;21.48;;;15.88;;
39654;SDS011;25336;59.944;11.010;2023-04-24T10:15:21;4.30;;;3.33;;
39654;SDS011;25336;59.944;11.010;2023-04-24T10:17:50;2.50;;;1.73;;
39654;SDS011;25336;59.944;11.010;2023-04-24T10:20:20;4.07;;;2.22;;
39654;SDS011;25336;59.944;11.010;2023-04-24T10:22:48;2.90;;;2.30;;
39654;SDS011;25336;59.944;11.010;2023-04-24T10:25:18;2.70;;;2.10;;
39654;SDS011;25336;59.944;11.010;2023-04-24T10:27:48;1.33;;;1.23;;
39654;SDS011;25336;59.944;11.010;2023-04-24T10:30:15;1.30;;;1.20;;
39654;SDS011;25336;59.944;11.010;2023-04-24T10:32:41;1.35;;;1.25;;
39654;SDS011;25336;59.944;11.010;2023-04-24T10:35:07;1.42;;;1.23;;
39654;SDS011;25336;59.944;11.010;2023-04-24T10:37:40;5.20;;;1.10;;
39654;SDS011;25336;59.944;11.010;2023-04-24T10:40:11;1.40;;;1.30;;
39654;SDS011;25336;59.944;11.010;2023-04-24T10:42:42;1.43;;;1.33;;
39654;SDS011;25336;59.944;11.010;2023-04-24T10:45:15;1.10;;;1.10;;
39654;SDS011;25336;59.944;11.010;2023-04-24T10:50:18;1.48;;;1.23;;
39654;SDS011;25336;59.944;11.010;2023-04-24T10:52:44;1.50;;;1.40;;
39654;SDS011;25336;59.944;11.010;2023-04-24T10:55:15;1.25;;;1.23;;
39654;SDS011;25336;59.944;11.010;2023-04-24T10:58:01;1.20;;;1.20;;
39654;SDS011;25336;59.944;11.010;2023-04-24T11:00:28;1.38;;;1.23;;
39654;SDS011;25336;59.944;11.010;2023-04-24T11:02:54;1.02;;;1.02;;
39654;SDS011;25336;59.944;11.010;2023-04-24T11:05:20;1.33;;;1.30;;
39654;SDS011;25336;59.944;11.010;2023-04-24T11:10:47;4.75;;;3.85;;
39654;SDS011;25336;59.944;11.010;2023-04-24T11:16:20;1.08;;;1.08;;
39654;SDS011;25336;59.944;11.010;2023-04-24T11:18:52;1.08;;;0.98;;
39654;SDS011;25336;59.944;11.010;2023-04-24T11:21:25;2.00;;;1.77;;
39654;SDS011;25336;59.944;11.010;2023-04-24T11:26:22;1.58;;;1.48;;
39654;SDS011;25336;59.944;11.010;2023-04-24T11:28:55;2.03;;;1.92;;
39654;SDS011;25336;59.944;11.010;2023-04-24T11:31:38;2.28;;;2.10;;
39654;SDS011;25336;59.944;11.010;2023-04-24T11:34:09;1.25;;;1.15;;
39654;SDS011;25336;59.944;11.010;2023-04-24T11:36:38;1.33;;;1.23;;
39654;SDS011;25336;59.944;11.010;2023-04-24T11:39:04;1.25;;;1.13;;
39654;SDS011;25336;59.944;11.010;2023-04-24T11:41:30;1.73;;;1.63;;
39654;SDS011;25336;59.944;11.010;2023-04-24T11:43:56;1.20;;;1.13;;
39654;SDS011;25336;59.944;11.010;2023-04-24T11:46:22;6.22;;;4.20;;
39654;SDS011;25336;59.944;11.010;2023-04-24T11:48:51;1.98;;;1.83;;
39654;SDS011;25336;59.944;11.010;2023-04-24T11:51:16;4.60;;;1.63;;
39654;SDS011;25336;59.944;11.010;2023-04-24T11:53:42;1.25;;;1.23;;
39654;SDS011;25336;59.944;11.010;2023-04-24T11:56:08;1.70;;;1.60;;
39654;SDS011;25336;59.944;11.010;2023-04-24T11:58:35;1.90;;;1.80;;
39654;SDS011;25336;59.944;11.010;2023-04-24T12:01:01;2.47;;;2.28;;
39654;SDS011;25336;59.944;11.010;2023-04-24T12:03:26;2.30;;;2.10;;
39654;SDS011;25336;59.944;11.010;2023-04-24T12:05:52;4.80;;;3.72;;
39654;SDS011;25336;59.944;11.010;2023-04-24T12:08:29;3.60;;;3.08;;
39654;SDS011;25336;59.944;11.010;2023-04-24T12:10:55;2.20;;;1.80;;
39654;SDS011;25336;59.944;11.010;2023-04-24T12:13:20;2.10;;;1.90;;
39654;SDS011;25336;59.944;11.010;2023-04-24T12:15:46;1.90;;;1.80;;
39654;SDS011;25336;59.944;11.010;2023-04-24T12:18:12;1.83;;;1.60;;
39654;SDS011;25336;59.944;11.010;2023-04-24T12:20:40;2.17;;;1.98;;
39654;SDS011;25336;59.944;11.010;2023-04-24T12:23:05;4.22;;;3.33;;
39654;SDS011;25336;59.944;11.010;2023-04-24T12:25:31;2.55;;;2.35;;
39654;SDS011;25336;59.944;11.010;2023-04-24T12:32:59;2.70;;;1.70;;
39654;SDS011;25336;59.944;11.010;2023-04-24T12:35:27;3.55;;;1.42;;
39654;SDS011;25336;59.944;11.010;2023-04-24T12:37:53;1.67;;;1.50;;
39654;SDS011;25336;59.944;11.010;2023-04-24T12:40:20;2.15;;;1.95;;
39654;SDS011;25336;59.944;11.010;2023-04-24T12:42:48;1.63;;;1.52;;
39654;SDS011;25336;59.944;11.010;2023-04-24T12:45:15;2.40;;;1.40;;
39654;SDS011;25336;59.944;11.010;2023-04-24T12:47:42;2.65;;;1.77;;
39654;SDS011;25336;59.944;11.010;2023-04-24T12:50:09;2.00;;;1.85;;
39654;SDS011;25336;59.944;11.010;2023-04-24T12:52:36;1.67;;;1.58;;
39654;SDS011;25336;59.944;11.010;2023-04-24T12:55:03;2.30;;;1.67;;
39654;SDS011;25336;59.944;11.010;2023-04-24T12:57:30;3.83;;;1.73;;
39654;SDS011;25336;59.944;11.010;2023-04-24T12:59:56;2.25;;;1.70;;
39654;SDS011;25336;59.944;11.010;2023-04-24T13:02:23;2.47;;;1.67;;
39654;SDS011;25336;59.944;11.010;2023-04-24T13:04:50;3.42;;;1.52;;
39654;SDS011;25336;59.944;11.010;2023-04-24T13:07:17;2.33;;;1.70;;
39654;SDS011;25336;59.944;11.010;2023-04-24T13:09:43;1.52;;;1.42;;
39654;SDS011;25336;59.944;11.010;2023-04-24T13:12:09;2.22;;;1.45;;
39654;SDS011;25336;59.944;11.010;2023-04-24T13:14:35;1.90;;;1.80;;
39654;SDS011;25336;59.944;11.010;2023-04-24T13:17:02;2.42;;;2.22;;
39654;SDS011;25336;59.944;11.010;2023-04-24T13:19:28;1.42;;;1.33;;
39654;SDS011;25336;59.944;11.010;2023-04-24T13:21:54;1.58;;;1.48;;
39654;SDS011;25336;59.944;11.010;2023-04-24T13:24:22;2.40;;;1.45;;
39654;SDS011;25336;59.944;11.010;2023-04-24T13:26:51;1.90;;;1.25;;
39654;SDS011;25336;59.944;11.010;2023-04-24T13:29:17;1.20;;;1.20;;
39654;SDS011;25336;59.944;11.010;2023-04-24T13:31:43;2.10;;;1.20;;
39654;SDS011;25336;59.944;11.010;2023-04-24T13:34:09;2.20;;;1.30;;
39654;SDS011;25336;59.944;11.010;2023-04-24T13:36:35;1.55;;;1.30;;
39654;SDS011;25336;59.944;11.010;2023-04-24T13:39:01;1.40;;;1.30;;
39654;SDS011;25336;59.944;11.010;2023-04-24T13:41:29;1.50;;;1.40;;
39654;SDS011;25336;59.944;11.010;2023-04-24T13:43:55;1.27;;;1.17;;
39654;SDS011;25336;59.944;11.010;2023-04-24T13:46:21;1.10;;;1.10;;
39654;SDS011;25336;59.944;11.010;2023-04-24T13:48:46;4.00;;;1.05;;
39654;SDS011;25336;59.944;11.010;2023-04-24T13:51:12;1.50;;;1.15;;
39654;SDS011;25336;59.944;11.010;2023-04-24T13:53:38;2.40;;;1.90;;
39654;SDS011;25336;59.944;11.010;2023-04-24T13:56:04;1.92;;;1.52;;
39654;SDS011;25336;59.944;11.010;2023-04-24T13:58:30;1.42;;;1.35;;
39654;SDS011;25336;59.944;11.010;2023-04-24T14:00:57;1.10;;;1.10;;
39654;SDS011;25336;59.944;11.010;2023-04-24T14:03:23;1.75;;;1.17;;
39654;SDS011;25336;59.944;11.010;2023-04-24T14:05:48;1.13;;;1.13;;
39654;SDS011;25336;59.944;11.010;2023-04-24T14:08:14;0.98;;;0.98;;
39654;SDS011;25336;59.944;11.010;2023-04-24T14:10:39;1.20;;;1.10;;
39654;SDS011;25336;59.944;11.010;2023-04-24T14:13:05;1.63;;;1.25;;
39654;SDS011;25336;59.944;11.010;2023-04-24T14:15:31;1.20;;;1.10;;
39654;SDS011;25336;59.944;11.010;2023-04-24T14:17:56;1.67;;;1.58;;
39654;SDS011;25336;59.944;11.010;2023-04-24T14:20:22;1.45;;;1.35;;
39654;SDS011;25336;59.944;11.010;2023-04-24T14:22:48;1.20;;;1.13;;
39654;SDS011;25336;59.944;11.010;2023-04-24T14:25:14;1.10;;;1.10;;
39654;SDS011;25336;59.944;11.010;2023-04-24T14:27:40;1.48;;;1.38;;
39654;SDS011;25336;59.944;11.010;2023-04-24T14:30:06;1.70;;;1.60;;
39654;SDS011;25336;59.944;11.010;2023-04-24T14:32:32;2.65;;;1.77;;
39654;SDS011;25336;59.944;11.010;2023-04-24T14:34:58;2.83;;;1.35;;
39654;SDS011;25336;59.944;11.010;2023-04-24T14:37:23;1.40;;;1.30;;
39654;SDS011;25336;59.944;11.010;2023-04-24T14:39:49;3.20;;;1.50;;
39654;SDS011;25336;59.944;11.010;2023-04-24T14:42:15;1.70;;;1.27;;
39654;SDS011;25336;59.944;11.010;2023-04-24T14:44:42;1.60;;;1.50;;